Webcam Flughafen St.Gallen-Altenrhein

Live-Bilder und Zeitraffer LSZR / ACH.

 

Live aus Altenrhein
LIVE
LSZR 161920Z AUTO 02008KT 340V060 9999 OVC050 06/M02 Q1022
Zeitraffer heute
2021-04-16 00:14:53
LSZR 152150Z AUTO VRB02KT 9999 NCD 02/M02 Q1023